Time;durP1;ratioP1;P1;durP2;ratioP2;P2;SDS_P1;SDS_P2;PMS_P1;PMS_P2;Temp;Humidity;BMP_temperature;BMP_pressure;BME280_temperature;BME280_humidity;BME280_pressure;Samples;Min_cycle;Max_cycle;Signal;HPM_P1;HPM_P2
2022/04/29 00:00:42;;;;;;;12.43;9.58;;;;;;;6.58;67.79;97581.71;1757232;82;21009;-82
2022/04/29 00:03:10;;;;;;;12.98;8.63;;;;;;;6.58;67.62;97581.71;1757446;82;21397;-82
2022/04/29 00:05:37;;;;;;;13.88;9.60;;;;;;;6.59;67.68;97585.92;1757105;82;21064;-81
2022/04/29 00:08:04;;;;;;;12.43;8.60;;;;;;;6.61;67.74;97582.74;1757305;82;20954;-82
2022/04/29 00:10:30;;;;;;;11.90;8.53;;;;;;;6.60;67.74;97581.58;1757292;82;21309;-82
2022/04/29 00:12:55;;;;;;;12.35;9.10;;;;;;;6.60;67.77;97581.11;1757234;81;20947;-82
2022/04/29 00:15:21;;;;;;;12.33;8.83;;;;;;;6.58;67.98;97583.00;1750183;82;21070;-81
2022/04/29 00:17:47;;;;;;;11.53;9.13;;;;;;;6.56;68.03;97574.56;1737272;83;21049;-82
2022/04/29 00:20:14;;;;;;;12.65;8.93;;;;;;;6.55;68.00;97574.70;1737151;82;21468;-81
2022/04/29 00:22:40;;;;;;;11.10;7.80;;;;;;;6.52;68.21;97577.06;1737230;83;20966;-81
2022/04/29 00:25:08;;;;;;;12.65;7.70;;;;;;;6.50;68.20;97573.77;1736983;82;21465;-82
2022/04/29 00:27:34;;;;;;;14.70;8.88;;;;;;;6.48;68.39;97576.95;1737280;83;20970;-82
2022/04/29 00:30:01;;;;;;;13.40;9.68;;;;;;;6.45;68.27;97570.75;1737129;83;21049;-81
2022/04/29 00:32:27;;;;;;;14.03;9.60;;;;;;;6.46;68.18;97572.39;1737215;82;21058;-82
2022/04/29 00:34:54;;;;;;;10.80;7.95;;;;;;;6.48;68.17;97569.67;1737137;83;21017;-82
2022/04/29 00:37:19;;;;;;;11.63;7.92;;;;;;;6.51;68.26;97569.45;1737203;83;21062;-82
2022/04/29 00:39:45;;;;;;;10.55;7.37;;;;;;;6.51;68.21;97566.39;1737083;83;21421;-82
2022/04/29 00:42:17;;;;;;;11.55;8.10;;;;;;;6.50;68.33;97566.48;1737100;83;21080;-82
2022/04/29 00:44:44;;;;;;;10.68;7.58;;;;;;;6.49;68.34;97565.67;1737243;82;21356;-81
2022/04/29 00:47:14;;;;;;;10.43;7.22;;;;;;;6.46;68.38;97561.25;1737143;83;21086;-82
2022/04/29 00:49:39;;;;;;;12.35;9.15;;;;;;;6.43;68.39;97561.50;1736261;81;21109;-82
2022/04/29 00:52:07;;;;;;;13.28;9.45;;;;;;;6.40;68.51;97563.05;1736702;83;21379;-82
2022/04/29 00:54:36;;;;;;;12.70;9.28;;;;;;;6.36;68.54;97560.39;1735809;83;21384;-82
2022/04/29 00:57:03;;;;;;;14.90;9.93;;;;;;;6.33;68.48;97561.43;1736685;83;21458;-81
2022/04/29 00:59:40;;;;;;;13.50;10.38;;;;;;;6.29;68.64;97558.77;1736878;83;21345;-82
2022/04/29 01:02:09;;;;;;;13.18;10.23;;;;;;;6.29;68.73;97557.47;1737043;82;21082;-82
2022/04/29 01:04:46;;;;;;;15.00;11.43;;;;;;;6.29;68.79;97551.84;1736817;83;21140;-81
2022/04/29 01:07:12;;;;;;;17.40;12.75;;;;;;;6.31;68.64;97554.29;1736160;83;21400;-82
2022/04/29 01:09:37;;;;;;;18.50;13.25;;;;;;;6.31;68.71;97550.42;1702197;84;20972;-82
2022/04/29 01:12:04;;;;;;;18.82;13.22;;;;;;;6.31;68.85;97556.88;1736941;83;21014;-82
2022/04/29 01:14:30;;;;;;;19.02;13.15;;;;;;;6.28;69.05;97553.26;1701684;84;21014;-81
2022/04/29 01:16:58;;;;;;;16.27;12.43;;;;;;;6.25;69.01;97547.88;1753997;80;21082;-82
2022/04/29 01:19:25;;;;;;;15.95;11.73;;;;;;;6.25;68.91;97554.80;1757353;82;20971;-82
2022/04/29 01:21:52;;;;;;;13.78;10.68;;;;;;;6.22;68.91;97543.45;1757158;82;21373;-82
2022/04/29 01:24:18;;;;;;;15.80;13.00;;;;;;;6.18;69.10;97545.47;1757239;82;20982;-82
2022/04/29 01:26:43;;;;;;;18.27;14.20;;;;;;;6.12;69.18;97540.80;1757210;82;21026;-82
2022/04/29 01:29:09;;;;;;;21.37;12.25;;;;;;;6.10;69.11;97536.23;1757226;82;21034;-82
2022/04/29 01:31:35;;;;;;;16.15;11.28;;;;;;;6.12;69.32;97531.76;1757147;81;20998;-82
2022/04/29 01:34:01;;;;;;;15.43;11.12;;;;;;;6.15;69.50;97530.22;1757142;81;21038;-82
2022/04/29 01:36:28;;;;;;;12.68;9.58;;;;;;;6.20;69.65;97533.73;1757207;82;20955;-82
2022/04/29 01:38:54;;;;;;;13.22;9.78;;;;;;;6.22;69.49;97531.84;1757251;82;20931;-82
2022/04/29 01:41:19;;;;;;;14.83;9.73;;;;;;;6.23;69.38;97533.47;1757112;82;21029;-82
2022/04/29 01:43:46;;;;;;;14.18;9.18;;;;;;;6.23;69.29;97531.70;1757465;82;20938;-82
2022/04/29 01:46:12;;;;;;;13.25;9.33;;;;;;;6.21;69.43;97536.18;1757330;81;20990;-81
2022/04/29 01:48:38;;;;;;;12.20;9.63;;;;;;;6.18;69.33;97534.30;1757217;82;20978;-82
2022/04/29 01:51:06;;;;;;;13.00;8.90;;;;;;;6.14;69.46;97532.92;1756917;81;20951;-82
2022/04/29 01:53:33;;;;;;;11.93;9.13;;;;;;;6.09;69.69;97531.20;1757283;82;20969;-81
2022/04/29 01:55:59;;;;;;;14.75;9.60;;;;;;;6.06;69.66;97535.33;1757166;82;20954;-82
2022/04/29 01:58:24;;;;;;;12.50;9.43;;;;;;;6.06;69.70;97532.75;1757210;82;21003;-82
2022/04/29 02:00:50;;;;;;;12.55;9.28;;;;;;;6.07;69.67;97536.48;1757069;81;21026;-82
2022/04/29 02:03:17;;;;;;;13.22;9.43;;;;;;;6.08;69.61;97534.25;1757042;81;21023;-82
2022/04/29 02:05:42;;;;;;;13.53;9.98;;;;;;;6.08;69.64;97535.55;1757195;82;21021;-82
2022/04/29 02:08:08;;;;;;;10.30;8.43;;;;;;;6.05;69.61;97528.53;1757387;81;20962;-82
2022/04/29 02:10:34;;;;;;;15.90;10.05;;;;;;;6.06;70.01;97534.03;1757096;81;21302;-82
2022/04/29 02:13:00;;;;;;;13.40;10.32;;;;;;;6.02;69.92;97533.48;1757241;81;20970;-82
2022/04/29 02:15:26;;;;;;;13.72;9.15;;;;;;;5.99;69.99;97534.52;1756963;81;21037;-82
2022/04/29 02:17:52;;;;;;;12.58;10.23;;;;;;;5.95;69.90;97534.42;1757211;82;20982;-81
2022/04/29 02:20:17;;;;;;;13.15;9.50;;;;;;;5.92;70.06;97535.97;1757270;81;20962;-82
2022/04/29 02:22:43;;;;;;;13.32;9.93;;;;;;;5.88;70.00;97529.40;1757175;82;21326;-82
2022/04/29 02:25:09;;;;;;;13.40;8.88;;;;;;;5.89;70.12;97527.64;1757122;81;20962;-81
2022/04/29 02:27:36;;;;;;;12.65;8.73;;;;;;;5.90;70.07;97531.41;1757196;82;20927;-82
2022/04/29 02:30:03;;;;;;;11.85;9.60;;;;;;;5.92;70.20;97531.28;1757222;81;21002;-82
2022/04/29 02:32:31;;;;;;;12.03;8.85;;;;;;;5.92;70.09;97528.23;1757094;82;21310;-82
2022/04/29 02:35:00;;;;;;;12.07;9.00;;;;;;;5.91;69.89;97529.65;1757038;82;20986;-82
2022/04/29 02:37:27;;;;;;;13.43;9.75;;;;;;;5.90;70.04;97528.83;1757318;81;20923;-82
2022/04/29 02:39:53;;;;;;;14.03;10.45;;;;;;;5.88;70.10;97535.84;1757109;82;20914;-81
2022/04/29 02:42:19;;;;;;;13.20;10.43;;;;;;;5.85;70.14;97529.63;1757100;82;21013;-82
2022/04/29 02:44:45;;;;;;;13.98;11.22;;;;;;;5.83;70.11;97529.41;1757315;81;21341;-82
2022/04/29 02:47:10;;;;;;;16.75;11.30;;;;;;;5.80;70.10;97539.97;1757036;81;21045;-82
2022/04/29 02:49:41;;;;;;;16.82;12.03;;;;;;;5.77;70.22;97528.15;1757265;82;20926;-82
2022/04/29 02:52:09;;;;;;;15.58;11.40;;;;;;;5.76;70.40;97525.22;1757073;82;20966;-82
2022/04/29 02:54:35;;;;;;;18.10;11.50;;;;;;;5.78;70.70;97532.36;1757268;81;21309;-82
2022/04/29 02:57:01;;;;;;;18.32;12.53;;;;;;;5.80;70.75;97526.61;1757306;82;20963;-82
2022/04/29 02:59:27;;;;;;;21.37;15.00;;;;;;;5.81;70.79;97523.08;1757201;82;20946;-82
2022/04/29 03:01:53;;;;;;;20.52;13.65;;;;;;;5.81;70.75;97523.08;1757309;81;21021;-82
2022/04/29 03:04:18;;;;;;;18.57;14.20;;;;;;;5.78;71.02;97531.55;1757163;81;20947;-82
2022/04/29 03:06:44;;;;;;;22.02;14.15;;;;;;;5.75;71.05;97520.20;1757299;81;21389;-81
2022/04/29 03:09:10;;;;;;;19.27;13.88;;;;;;;5.74;71.12;97532.27;1757420;80;20949;-82
2022/04/29 03:11:36;;;;;;;19.57;14.18;;;;;;;5.73;71.34;97528.88;1757232;82;20951;-82
2022/04/29 03:14:02;;;;;;;18.35;12.40;;;;;;;5.70;71.28;97531.70;1757168;82;21313;-82
2022/04/29 03:16:28;;;;;;;14.03;11.48;;;;;;;5.69;71.44;97527.93;1757150;80;21069;-82
2022/04/29 03:18:54;;;;;;;16.42;11.25;;;;;;;5.70;71.28;97534.75;1757195;82;20959;-82
2022/04/29 03:21:20;;;;;;;16.35;11.05;;;;;;;5.73;71.28;97533.22;1757193;82;21472;-82
2022/04/29 03:23:49;;;;;;;17.75;11.93;;;;;;;5.73;71.57;97522.42;1757106;82;20963;-82
2022/04/29 03:26:15;;;;;;;15.40;12.13;;;;;;;5.71;71.41;97535.92;1757247;81;20994;-82
2022/04/29 03:28:42;;;;;;;14.63;10.38;;;;;;;5.71;71.71;97532.05;1757143;82;21045;-82
2022/04/29 03:31:07;;;;;;;15.50;11.22;;;;;;;5.70;71.61;97534.28;1757201;82;21378;-82
2022/04/29 03:33:34;;;;;;;15.35;11.68;;;;;;;5.68;71.59;97529.69;1757115;81;21034;-82
2022/04/29 03:36:00;;;;;;;15.08;11.35;;;;;;;5.65;71.66;97531.23;1757006;82;21076;-82
2022/04/29 03:38:26;;;;;;;17.05;12.75;;;;;;;5.63;71.64;97532.30;1757121;80;20977;-82
2022/04/29 03:40:53;;;;;;;20.15;12.78;;;;;;;5.62;71.78;97527.62;1756821;80;20906;-82
2022/04/29 03:43:19;;;;;;;15.75;10.98;;;;;;;5.65;71.70;97533.00;1757416;82;20958;-82
2022/04/29 03:45:45;;;;;;;17.82;11.90;;;;;;;5.67;71.73;97534.98;1757418;81;20974;-82
2022/04/29 03:48:11;;;;;;;17.25;12.40;;;;;;;5.66;72.01;97534.16;1757222;81;21353;-82
2022/04/29 03:50:37;;;;;;;16.82;12.78;;;;;;;5.69;71.96;97535.67;1766675;80;21055;-81
2022/04/29 03:53:03;;;;;;;17.40;12.45;;;;;;;5.70;71.95;97538.16;1775671;80;21004;-82
2022/04/29 03:55:31;;;;;;;17.27;12.55;;;;;;;5.69;72.01;97534.38;1775445;80;20972;-82
2022/04/29 03:57:57;;;;;;;15.60;12.95;;;;;;;5.69;72.22;97539.09;1775438;81;21027;-81
2022/04/29 04:00:24;;;;;;;18.60;12.37;;;;;;;5.68;72.42;97539.19;1772988;80;21090;-82
2022/04/29 04:02:50;;;;;;;19.65;12.93;;;;;;;5.68;72.56;97537.91;1757207;80;21369;-82
2022/04/29 04:05:17;;;;;;;17.37;11.68;;;;;;;5.71;72.81;97544.13;1757171;82;21397;-81
2022/04/29 04:07:45;;;;;;;14.80;10.58;;;;;;;5.75;72.64;97539.06;1757357;82;20975;-82
2022/04/29 04:10:11;;;;;;;14.58;11.08;;;;;;;5.82;72.72;97540.19;1756927;82;20997;-82
2022/04/29 04:12:45;;;;;;;12.25;10.78;;;;;;;5.88;72.75;97543.59;1757077;82;20989;-82
2022/04/29 04:15:11;;;;;;;14.20;10.05;;;;;;;5.92;72.58;97545.47;1757359;82;21049;-82
2022/04/29 04:17:37;;;;;;;14.10;10.30;;;;;;;5.96;72.73;97542.98;1742458;82;21105;-82
2022/04/29 04:20:05;;;;;;;14.58;10.32;;;;;;;6.00;72.71;97547.77;1737178;81;21460;-82
2022/04/29 04:22:32;;;;;;;14.47;10.13;;;;;;;6.04;72.84;97547.54;1738997;82;20978;-81
2022/04/29 04:24:59;;;;;;;14.10;10.23;;;;;;;6.07;73.05;97549.39;1738843;82;20990;-82
2022/04/29 04:27:25;;;;;;;13.85;9.63;;;;;;;6.13;73.21;97553.22;1739510;82;20982;-82
2022/04/29 04:29:51;;;;;;;14.47;9.93;;;;;;;6.21;73.20;97553.42;1739572;82;21077;-82
2022/04/29 04:32:17;;;;;;;14.10;9.50;;;;;;;6.33;73.46;97553.69;1738289;82;21015;-82
2022/04/29 04:34:52;;;;;;;14.87;9.05;;;;;;;6.46;73.69;97557.38;1739927;82;21366;-82
2022/04/29 04:37:21;;;;;;;12.93;9.28;;;;;;;6.56;73.98;97557.78;1740086;82;20942;-82
2022/04/29 04:39:48;;;;;;;12.37;8.95;;;;;;;6.69;73.62;97558.05;1739987;82;21061;-82
2022/04/29 04:42:14;;;;;;;11.20;9.28;;;;;;;6.78;73.44;97565.02;1740116;82;21377;-82
2022/04/29 04:44:39;;;;;;;11.73;8.58;;;;;;;6.87;73.58;97561.20;1740210;82;21423;-82
2022/04/29 04:47:05;;;;;;;13.15;9.43;;;;;;;6.97;73.77;97564.27;1739984;81;21133;-82
2022/04/29 04:49:33;;;;;;;13.18;8.83;;;;;;;7.06;73.58;97569.97;1739950;82;21050;-82
2022/04/29 04:51:59;;;;;;;11.93;9.48;;;;;;;7.15;73.78;97566.10;1739811;82;20959;-82
2022/04/29 04:54:24;;;;;;;13.75;10.85;;;;;;;7.27;72.46;97573.30;1739903;82;21246;-81
2022/04/29 04:56:50;;;;;;;21.68;12.20;;;;;;;7.42;71.59;97573.73;1740088;82;20958;-82
2022/04/29 04:59:16;;;;;;;18.95;11.43;;;;;;;7.56;70.71;97572.55;1740029;82;20962;-82
2022/04/29 05:01:42;;;;;;;18.85;12.47;;;;;;;7.68;70.38;97573.59;1737412;81;21038;-81
2022/04/29 05:04:07;;;;;;;18.12;11.80;;;;;;;7.81;70.28;97575.93;1738379;82;20928;-82
2022/04/29 05:06:36;;;;;;;15.43;12.13;;;;;;;7.92;69.81;97575.78;1739408;82;21042;-81
2022/04/29 05:09:01;;;;;;;16.82;11.97;;;;;;;8.02;69.29;97579.67;1739737;82;20971;-81
2022/04/29 05:11:27;;;;;;;14.55;10.45;;;;;;;8.11;69.16;97571.07;1709387;83;21301;-82
2022/04/29 05:13:52;;;;;;;15.75;11.73;;;;;;;8.16;69.08;97571.98;1737097;82;20971;-82
2022/04/29 05:16:19;;;;;;;15.75;11.93;;;;;;;8.17;68.84;97572.31;1740231;80;21005;-82
2022/04/29 05:18:44;;;;;;;14.75;10.90;;;;;;;8.28;68.37;97576.84;1757350;81;20950;-81
2022/04/29 05:21:10;;;;;;;17.15;13.43;;;;;;;8.33;68.38;97574.69;1757183;80;20934;-81
2022/04/29 05:23:36;;;;;;;17.67;13.88;;;;;;;8.36;68.20;97570.55;1757350;82;20887;-82
2022/04/29 05:26:03;;;;;;;80.92;40.83;;;;;;;8.39;67.99;97575.92;1756671;82;20942;-81
2022/04/29 05:28:29;;;;;;;92.50;43.50;;;;;;;8.43;68.09;97575.98;1756661;82;20966;-81
2022/04/29 05:30:56;;;;;;;62.85;31.70;;;;;;;8.47;67.96;97568.30;1757094;82;20966;-81
2022/04/29 05:33:23;;;;;;;40.05;21.15;;;;;;;8.54;67.84;97575.83;1757221;81;21318;-82
2022/04/29 05:35:49;;;;;;;29.27;17.50;;;;;;;8.62;67.39;97577.70;1757228;82;20994;-81
2022/04/29 05:38:16;;;;;;;78.00;38.28;;;;;;;8.70;67.83;97572.17;1757058;82;20935;-82
2022/04/29 05:43:27;;;;;;;24.75;15.18;;;;;;;8.82;66.83;97582.38;1757435;81;21357;-81
2022/04/29 05:45:53;;;;;;;22.02;14.05;;;;;;;8.87;66.01;97579.70;1757292;81;20982;-81
2022/04/29 05:48:19;;;;;;;18.50;12.95;;;;;;;8.91;66.31;97583.63;1757255;81;21380;-81
2022/04/29 05:50:46;;;;;;;16.30;12.75;;;;;;;8.98;66.18;97580.01;1756969;81;20955;-81
2022/04/29 05:53:12;;;;;;;15.48;12.37;;;;;;;9.08;65.78;97583.84;1757274;82;20974;-81
2022/04/29 05:55:38;;;;;;;16.50;13.58;;;;;;;9.13;65.65;97585.06;1757351;82;21302;-81
2022/04/29 05:58:04;;;;;;;17.37;13.43;;;;;;;9.16;65.25;97588.66;1757129;82;20982;-81
2022/04/29 06:00:30;;;;;;;15.40;12.93;;;;;;;9.23;65.35;97592.30;1757328;82;20962;-81
2022/04/29 06:02:56;;;;;;;16.52;13.68;;;;;;;9.30;65.05;97593.37;1757102;82;20935;-82
2022/04/29 06:05:22;;;;;;;16.75;13.55;;;;;;;9.40;64.62;97591.20;1757280;82;21002;-81
2022/04/29 06:07:48;;;;;;;14.73;12.23;;;;;;;9.45;64.46;97596.31;1757392;82;21046;-81
2022/04/29 06:10:14;;;;;;;17.42;13.65;;;;;;;9.51;64.05;97602.20;1757193;81;21011;-81
2022/04/29 06:12:41;;;;;;;21.17;14.35;;;;;;;9.62;64.10;97602.50;1757399;81;21074;-81
2022/04/29 06:15:07;;;;;;;16.07;12.05;;;;;;;9.73;63.98;97607.46;1757119;82;20961;-81
2022/04/29 06:17:33;;;;;;;16.05;12.47;;;;;;;9.82;63.94;97603.19;1745698;81;21164;-81
2022/04/29 06:19:59;;;;;;;18.85;13.53;;;;;;;9.89;63.53;97607.63;1736937;83;20951;-81
2022/04/29 06:22:24;;;;;;;17.55;14.43;;;;;;;9.99;62.94;97608.05;1737115;83;21031;-81
2022/04/29 06:24:50;;;;;;;18.80;16.40;;;;;;;10.03;63.13;97611.50;1737046;83;21025;-81
2022/04/29 06:27:16;;;;;;;26.12;18.25;;;;;;;10.08;62.89;97609.75;1736960;83;21057;-81
2022/04/29 06:29:42;;;;;;;21.17;16.85;;;;;;;10.09;62.99;97611.41;1737065;83;21006;-82
2022/04/29 06:32:08;;;;;;;35.08;24.18;;;;;;;10.15;62.52;97611.62;1737032;82;20987;-82
2022/04/29 06:34:34;;;;;;;31.50;21.48;;;;;;;10.18;63.17;97610.50;1736990;83;20971;-82
2022/04/29 06:37:00;;;;;;;21.62;16.05;;;;;;;10.19;62.78;97614.24;1736993;83;21116;-83
2022/04/29 06:39:26;;;;;;;20.25;15.08;;;;;;;10.24;63.43;97613.81;1737078;83;21065;-81
2022/04/29 06:41:52;;;;;;;19.17;16.37;;;;;;;10.29;62.90;97613.39;1736773;83;21129;-82
2022/04/29 06:44:19;;;;;;;29.70;21.93;;;;;;;10.31;63.05;97617.95;1736972;83;20979;-81
2022/04/29 06:46:45;;;;;;;19.73;15.08;;;;;;;10.36;62.79;97613.92;1736900;83;20966;-81
2022/04/29 06:49:11;;;;;;;22.02;16.10;;;;;;;10.44;61.98;97614.01;1736941;83;20994;-81
2022/04/29 06:51:36;;;;;;;22.58;16.23;;;;;;;10.49;62.34;97618.74;1736846;83;21046;-82
2022/04/29 06:54:03;;;;;;;20.55;14.30;;;;;;;10.58;62.96;97620.45;1737115;83;20967;-82
2022/04/29 06:56:29;;;;;;;19.77;15.43;;;;;;;10.65;62.54;97621.95;1737054;83;21421;-82
2022/04/29 06:58:56;;;;;;;20.95;15.28;;;;;;;10.74;63.00;97617.97;1736975;83;21034;-81
2022/04/29 07:01:22;;;;;;;21.93;15.85;;;;;;;10.86;62.64;97618.99;1736977;83;21470;-81
2022/04/29 07:03:47;;;;;;;19.15;13.15;;;;;;;10.94;61.73;97621.17;1737351;83;21023;-81
2022/04/29 07:06:13;;;;;;;17.35;13.08;;;;;;;11.03;61.63;97624.13;1736973;83;21042;-81
2022/04/29 07:08:39;;;;;;;14.58;12.78;;;;;;;11.09;61.10;97631.83;1737241;83;21030;-82
2022/04/29 07:11:04;;;;;;;15.23;12.53;;;;;;;11.16;60.94;97633.31;1737160;83;21026;-82
2022/04/29 07:13:32;;;;;;;16.17;12.40;;;;;;;11.21;60.57;97630.56;1736981;83;21058;-81
2022/04/29 07:15:58;;;;;;;15.45;11.90;;;;;;;11.28;60.45;97631.59;1737075;83;21066;-82
2022/04/29 07:18:24;;;;;;;17.40;14.25;;;;;;;11.33;59.89;97631.94;1753194;81;21113;-81
2022/04/29 07:20:50;;;;;;;20.10;15.13;;;;;;;11.45;59.30;97629.06;1757280;82;21070;-81
2022/04/29 07:23:16;;;;;;;17.27;12.30;;;;;;;11.53;59.04;97631.69;1757157;81;21311;-82
2022/04/29 07:25:41;;;;;;;16.37;12.85;;;;;;;11.57;59.00;97631.72;1757261;81;20974;-81
2022/04/29 07:28:07;;;;;;;20.08;15.23;;;;;;;11.57;59.21;97632.53;1757372;81;20978;-82
2022/04/29 07:30:33;;;;;;;19.85;16.77;;;;;;;11.65;59.09;97631.25;1756967;82;21369;-82
2022/04/29 07:32:59;;;;;;;17.12;13.75;;;;;;;11.70;59.17;97633.38;1757225;81;20942;-81
2022/04/29 07:43:38;;;;;;;25.70;17.45;;;;;;;12.14;57.16;97631.88;1757222;81;20982;-82
2022/04/29 07:46:05;;;;;;;26.40;15.83;;;;;;;12.23;55.53;97625.23;1757162;81;20994;-81
2022/04/29 07:48:31;;;;;;;16.52;10.75;;;;;;;12.20;55.99;97626.02;1756897;80;20997;-81
2022/04/29 07:50:57;;;;;;;14.30;9.68;;;;;;;12.24;56.17;97629.95;1756660;82;20982;-82
2022/04/29 07:53:23;;;;;;;13.32;9.63;;;;;;;12.30;55.97;97627.99;1756009;82;20974;-81
2022/04/29 07:55:49;;;;;;;12.05;9.50;;;;;;;12.39;55.88;97627.03;1756036;81;20982;-81
2022/04/29 07:58:15;;;;;;;15.63;9.45;;;;;;;12.42;55.94;97626.70;1757055;81;21326;-82
2022/04/29 08:00:41;;;;;;;12.28;8.68;;;;;;;12.45;54.03;97630.77;1757076;81;21061;-82
2022/04/29 08:03:06;;;;;;;10.85;8.43;;;;;;;12.54;55.05;97627.20;1757336;82;20962;-82
2022/04/29 08:05:32;;;;;;;12.43;8.25;;;;;;;12.78;55.67;97627.17;1757284;82;21378;-82
2022/04/29 08:08:00;;;;;;;10.30;8.40;;;;;;;12.78;52.14;97628.96;1757253;81;20959;-81
2022/04/29 08:10:29;;;;;;;11.43;9.25;;;;;;;12.82;52.13;97623.73;1757238;82;21348;-81
2022/04/29 08:12:59;;;;;;;12.75;8.93;;;;;;;12.85;51.42;97627.31;1757120;81;21388;-82
2022/04/29 08:15:26;;;;;;;31.73;23.45;;;;;;;13.07;53.09;97627.12;1756996;81;20998;-81
2022/04/29 08:17:52;;;;;;;25.37;15.63;;;;;;;13.17;53.37;97622.02;1747189;80;21471;-82
2022/04/29 08:20:19;;;;;;;11.50;9.38;;;;;;;13.26;52.37;97622.05;1737073;83;21097;-82
2022/04/29 08:22:44;;;;;;;11.08;8.85;;;;;;;13.30;51.37;97614.19;1737030;83;20947;-81
2022/04/29 08:25:10;;;;;;;16.07;11.55;;;;;;;13.25;51.36;97623.84;1736983;83;21460;-82
2022/04/29 08:27:36;;;;;;;12.98;9.33;;;;;;;13.19;51.66;97626.64;1737141;82;21098;-81
2022/04/29 08:30:06;;;;;;;8.83;7.10;;;;;;;13.12;51.32;97621.72;1737206;83;21069;-81
2022/04/29 08:32:41;;;;;;;10.30;7.95;;;;;;;13.08;49.87;97623.53;1736931;82;20994;-82
2022/04/29 08:35:09;;;;;;;8.28;7.30;;;;;;;13.03;50.35;97621.44;1738014;82;20994;-81
2022/04/29 08:37:37;;;;;;;11.33;7.92;;;;;;;12.94;48.37;97618.50;1732903;82;21057;-81
2022/04/29 08:40:05;;;;;;;7.67;6.92;;;;;;;12.84;49.01;97617.86;1737662;82;21400;-82
2022/04/29 08:42:37;;;;;;;12.30;8.13;;;;;;;12.77;47.68;97618.20;1737462;82;21139;-81
2022/04/29 08:45:07;;;;;;;8.73;6.47;;;;;;;12.72;49.46;97616.59;1734607;82;20955;-81
2022/04/29 08:47:36;;;;;;;9.88;7.45;;;;;;;12.80;48.95;97611.35;1700412;84;20991;-81
2022/04/29 08:50:06;;;;;;;7.95;6.62;;;;;;;12.85;49.09;97607.28;1697659;84;21023;-81
2022/04/29 08:52:35;;;;;;;6.37;5.15;;;;;;;12.96;48.15;97607.90;1701727;84;20998;-81
2022/04/29 09:00:37;;;;;;;6.25;4.97;;;;;;;13.26;47.73;97611.61;1734099;82;21409;-81
2022/04/29 09:03:02;;;;;;;7.42;5.25;;;;;;;13.38;46.07;97612.88;1701085;84;20952;-81
2022/04/29 09:05:27;;;;;;;6.60;5.55;;;;;;;13.24;47.12;97611.77;1737313;82;20978;-81
2022/04/29 09:07:55;;;;;;;8.30;4.95;;;;;;;13.12;47.33;97606.55;1737120;82;21010;-81
2022/04/29 09:10:25;;;;;;;6.62;4.20;;;;;;;13.13;47.46;97608.17;1700795;84;21385;-81
2022/04/29 09:12:52;;;;;;;4.58;3.33;;;;;;;13.06;44.95;97606.74;1737540;82;21019;-81
2022/04/29 09:15:18;;;;;;;6.28;3.37;;;;;;;13.07;45.52;97600.55;1735990;82;20959;-81
2022/04/29 09:17:48;;;;;;;4.75;3.67;;;;;;;13.32;46.09;97596.07;1743357;80;21415;-81
2022/04/29 09:20:19;;;;;;;4.08;3.25;;;;;;;13.59;44.84;97590.09;1755933;80;20997;-81
2022/04/29 09:22:50;;;;;;;5.05;3.60;;;;;;;13.65;43.29;97590.70;1757532;80;20942;-81
2022/04/29 09:25:17;;;;;;;6.80;4.50;;;;;;;13.58;41.68;97583.24;1757032;80;20989;-81
2022/04/29 09:28:02;;;;;;;5.87;4.22;;;;;;;13.50;44.10;97587.53;1756440;80;20946;-81
2022/04/29 09:30:37;;;;;;;6.28;4.17;;;;;;;13.39;43.20;97585.29;1757351;80;21029;-82
2022/04/29 09:33:05;;;;;;;7.62;4.70;;;;;;;13.57;44.14;97582.42;1757186;80;20958;-81
2022/04/29 09:35:37;;;;;;;6.42;4.85;;;;;;;13.75;43.60;97578.25;1756906;80;20991;-81
2022/04/29 09:40:46;;;;;;;7.00;4.40;;;;;;;13.72;43.44;97574.19;1657925;85;20989;-81
2022/04/29 09:43:12;;;;;;;7.15;4.35;;;;;;;13.90;43.86;97568.69;1721671;80;20931;-81
2022/04/29 09:45:38;;;;;;;4.97;4.10;;;;;;;14.17;44.41;97563.94;1756514;80;20962;-81
2022/04/29 09:48:04;;;;;;;6.90;4.22;;;;;;;14.45;44.37;97555.05;1756218;80;21383;-81
2022/04/29 09:50:49;;;;;;;5.67;4.55;;;;;;;14.74;44.72;97563.45;1715368;81;21059;-81
2022/04/29 09:53:21;;;;;;;6.05;4.60;;;;;;;15.03;44.50;97560.04;1764077;80;20981;-81
2022/04/29 09:56:10;;;;;;;7.72;4.40;;;;;;;15.30;42.00;97554.98;1735832;80;20922;-81
2022/04/29 09:58:35;;;;;;;10.10;7.20;;;;;;;15.48;43.15;97553.77;1755955;80;20978;-81
2022/04/29 10:01:03;;;;;;;10.50;6.05;;;;;;;15.58;43.20;97554.27;1756544;80;21013;-81
2022/04/29 10:03:29;;;;;;;5.45;4.30;;;;;;;15.53;43.53;97557.45;1756608;82;21013;-82
2022/04/29 10:05:55;;;;;;;6.30;5.60;;;;;;;15.42;40.93;97562.34;1757035;80;21262;-82
2022/04/29 10:08:21;;;;;;;11.33;8.25;;;;;;;15.12;40.47;97560.25;1757419;80;20990;-82
2022/04/29 10:10:47;;;;;;;10.23;7.42;;;;;;;14.87;42.44;97564.95;1757258;81;21029;-82
2022/04/29 10:13:14;;;;;;;9.78;6.62;;;;;;;14.74;42.46;97556.41;1757216;82;21030;-82
2022/04/29 10:15:40;;;;;;;9.00;6.10;;;;;;;14.63;43.63;97562.07;1736123;82;21313;-82
2022/04/29 10:23:38;;;;;;;7.53;6.40;;;;;;;14.76;44.27;97550.50;1757467;80;21025;-82
2022/04/29 10:26:04;;;;;;;8.28;6.03;;;;;;;15.07;45.25;97540.36;1735950;82;20946;-82
2022/04/29 10:28:29;;;;;;;7.95;6.25;;;;;;;15.28;44.12;97541.22;1753732;80;21435;-82
2022/04/29 10:31:06;;;;;;;10.98;8.40;;;;;;;15.46;42.68;97540.86;1754479;81;20950;-81
2022/04/29 10:33:31;;;;;;;7.45;5.25;;;;;;;15.48;41.36;97542.80;1750789;82;21395;-81
2022/04/29 10:36:09;;;;;;;7.70;6.70;;;;;;;15.50;40.73;97544.73;1751082;82;21085;-81
2022/04/29 10:38:39;;;;;;;9.03;7.17;;;;;;;15.40;41.51;97540.77;1729371;81;21392;-81
2022/04/29 10:41:14;;;;;;;9.33;7.20;;;;;;;15.50;42.62;97539.98;1708755;83;21074;-81
2022/04/29 10:43:56;;;;;;;8.15;6.05;;;;;;;15.49;41.26;97540.98;1743881;81;21720;-81
2022/04/29 10:46:38;;;;;;;6.70;5.10;;;;;;;15.24;41.25;97532.13;1747244;81;21355;-80
2022/04/29 10:49:13;;;;;;;;;;;;;;;15.33;41.17;97538.08;1716839;82;21422;-80
2022/04/29 10:51:54;;;;;;;7.67;5.95;;;;;;;15.42;41.97;97536.96;1695790;83;20493;-81
2022/04/29 10:54:41;;;;;;;6.53;5.83;;;;;;;15.60;42.01;97534.78;1685926;85;20989;-81
2022/04/29 10:57:08;;;;;;;7.97;6.40;;;;;;;15.63;41.04;97535.43;1688832;85;20998;-81
2022/04/29 10:59:57;;;;;;;7.83;5.85;;;;;;;15.49;40.22;97536.56;1688950;84;20946;-81
2022/04/29 11:02:26;;;;;;;7.12;6.05;;;;;;;15.35;40.54;97537.39;1689736;84;20978;-81
2022/04/29 11:04:52;;;;;;;9.40;6.85;;;;;;;15.42;39.92;97527.80;1688874;84;20996;-81
2022/04/29 11:07:44;;;;;;;7.37;6.00;;;;;;;15.35;40.54;97526.92;1719588;83;20988;-80
2022/04/29 11:10:14;;;;;;;7.25;6.10;;;;;;;15.27;40.72;97523.08;1718130;83;21064;-81
2022/04/29 11:12:42;;;;;;;7.72;6.35;;;;;;;15.17;41.28;97517.34;1709917;84;21015;-80
2022/04/29 11:15:14;;;;;;;9.03;6.15;;;;;;;15.03;40.75;97520.78;1750272;81;21307;-80
2022/04/29 11:17:40;;;;;;;8.28;6.67;;;;;;;15.04;40.87;97511.93;1746296;81;21392;-80
2022/04/29 11:20:23;;;;;;;7.33;6.28;;;;;;;15.13;41.00;97514.28;1713447;82;21055;-80
2022/04/29 11:25:52;;;;;;;7.03;6.22;;;;;;;15.46;40.12;97501.58;1747127;81;20988;-80
2022/04/29 11:28:18;;;;;;;7.80;6.45;;;;;;;15.63;39.31;97507.42;1714263;83;21022;-80
2022/04/29 11:30:45;;;;;;;8.93;5.95;;;;;;;15.69;40.10;97497.50;1714304;83;21973;-80
2022/04/29 11:33:11;;;;;;;8.98;5.67;;;;;;;15.80;40.38;97494.89;1749876;82;21018;-80
2022/04/29 11:35:37;;;;;;;6.95;5.72;;;;;;;15.86;39.15;97484.45;1750323;82;21100;-81
2022/04/29 11:38:03;;;;;;;8.85;6.28;;;;;;;15.96;39.62;97484.66;1749865;82;21051;-80
2022/04/29 11:40:29;;;;;;;8.23;5.85;;;;;;;16.04;39.52;97484.50;1750806;82;21031;-81
2022/04/29 11:42:55;;;;;;;8.65;6.05;;;;;;;16.10;40.03;97485.86;1750955;82;20924;-81
2022/04/29 11:45:22;;;;;;;9.48;6.58;;;;;;;16.10;38.67;97485.86;1751046;82;21027;-80
2022/04/29 11:47:48;;;;;;;6.28;5.65;;;;;;;16.13;39.93;97477.64;1750932;82;21347;-81
2022/04/29 11:50:13;;;;;;;7.45;6.75;;;;;;;16.27;37.88;97476.41;1751003;82;21055;-80
2022/04/29 11:52:39;;;;;;;7.75;6.28;;;;;;;16.17;36.27;97478.87;1750907;82;21057;-80
2022/04/29 11:55:13;;;;;;;7.92;5.65;;;;;;;16.03;37.97;97469.27;1750969;82;21400;-80
2022/04/29 11:57:45;;;;;;;8.43;6.35;;;;;;;16.07;38.65;97475.75;1750771;82;21019;-80